Airfield :







YOU CAN JOIN US ON...

 
LOGIN :

Register | Disclaimer

   EN    FR    IT 

 









Legend :    VFR   Marginal VFR   IFR   Intensive IFR   Very Intensive IFR
Visi :
Ceiling :
>= 8 km
>= 3000ft
5 to 8 km
1000 to 3000 ft
1500m to 5 km
500 to 1000 ft
800 to 1500m
200 to 500 ft
< 800m
< 200 ft
Symbols :   Thunderstorms  Fog  Heavy snow  Heavy precipitations  Wind > 20 kt






- Airport Elevation : 108 ft
- IATA code : YGP


CYGP - Gaspé

CURRENT METAR :
  • 090300Z 02012G22KT 340V070 3SM -RA BKN014 OVC025 05/03 A2973 RMK SC5SC3 SLP071

EXPIRED METARs :
  • 090200Z 03010G22KT 3SM -RA SCT015 OVC030 05/04 A2977 RMK SC3SC5 SLP084
  • 090135Z 04013G20KT 3SM -RA OVC020 05/04 A2978 RMK SC8 SLP088
  • 090100Z 04011G20KT 4SM -DZ BKN014 OVC030 06/04 A2980 RMK ST5SC3 SLP093

TAF TAF CYGP
Valid from the 09 at 02:00 until the 09 at 14:00 UTC


090138Z 0902/0914 03010G20KT 6SM -DZ BR OVC012
TEMPO 0902/0903 5SM -RA -DZ BR OVC008
FM090300 03015KT 2SM RA BR OVC005
TEMPO 0903/0908 5SM -RA BR OVC010
FM090800 36012KT 2SM -SNRA BR OVC008
TEMPO 0908/0914 5SM -RA BR OVC010
BECMG 0910/0912 36010G20KT RMK NXT FCST BY 090800Z
CZUL FIR / North America



MET'MAP, your aeronautical weather chart ! - Copyright ORBIFLY December 2007 - Disclaimer

ORBIFLY MET'MAP TEAM :

Programming & Development : Alexandra Zaïnal
Concept & original design : Baudouin d'Aumeries
Assistance for programming : Marc-Olivier Méhu
Technical & hardware support : Manuel Goepfert

Contact : metmap@orbifly.com




SOURCES & CREDITS :

   NOAA